sensor_id;sensor_type;location;lat;lon;timestamp;temperature;humidity
47576;DHT22;33304;52.456;13.328;2023-03-19T00:00:21;10.90;22.60
47576;DHT22;33304;52.456;13.328;2023-03-19T00:02:49;10.90;23.20
47576;DHT22;33304;52.456;13.328;2023-03-19T00:05:18;10.80;23.70
47576;DHT22;33304;52.456;13.328;2023-03-19T00:07:45;10.60;23.80
47576;DHT22;33304;52.456;13.328;2023-03-19T00:10:12;10.60;24.10
47576;DHT22;33304;52.456;13.328;2023-03-19T00:12:39;10.70;23.70
47576;DHT22;33304;52.456;13.328;2023-03-19T00:15:07;10.60;23.60
47576;DHT22;33304;52.456;13.328;2023-03-19T00:17:39;10.60;24.00
47576;DHT22;33304;52.456;13.328;2023-03-19T00:20:08;10.60;23.50
47576;DHT22;33304;52.456;13.328;2023-03-19T00:22:38;10.50;23.60
47576;DHT22;33304;52.456;13.328;2023-03-19T00:25:06;10.50;23.50
47576;DHT22;33304;52.456;13.328;2023-03-19T00:27:34;10.50;23.20
47576;DHT22;33304;52.456;13.328;2023-03-19T00:30:02;10.30;23.60
47576;DHT22;33304;52.456;13.328;2023-03-19T00:32:29;10.30;23.30
47576;DHT22;33304;52.456;13.328;2023-03-19T00:34:58;10.40;23.30
47576;DHT22;33304;52.456;13.328;2023-03-19T00:37:25;10.30;23.20
47576;DHT22;33304;52.456;13.328;2023-03-19T00:39:53;10.30;23.20
47576;DHT22;33304;52.456;13.328;2023-03-19T00:42:21;10.40;23.20
47576;DHT22;33304;52.456;13.328;2023-03-19T00:44:48;10.30;22.90
47576;DHT22;33304;52.456;13.328;2023-03-19T00:47:15;10.30;22.30
47576;DHT22;33304;52.456;13.328;2023-03-19T00:49:42;10.20;22.70
47576;DHT22;33304;52.456;13.328;2023-03-19T00:52:09;10.10;23.10
47576;DHT22;33304;52.456;13.328;2023-03-19T00:54:36;10.00;22.80
47576;DHT22;33304;52.456;13.328;2023-03-19T00:57:05;10.00;22.80
47576;DHT22;33304;52.456;13.328;2023-03-19T00:59:32;9.90;23.40
47576;DHT22;33304;52.456;13.328;2023-03-19T01:01:59;9.80;23.80
47576;DHT22;33304;52.456;13.328;2023-03-19T01:04:26;9.80;23.70
47576;DHT22;33304;52.456;13.328;2023-03-19T01:06:53;9.90;23.40
47576;DHT22;33304;52.456;13.328;2023-03-19T01:09:20;9.90;22.70
47576;DHT22;33304;52.456;13.328;2023-03-19T01:11:47;9.90;22.70
47576;DHT22;33304;52.456;13.328;2023-03-19T01:14:16;9.90;22.90
47576;DHT22;33304;52.456;13.328;2023-03-19T01:16:43;9.80;23.30
47576;DHT22;33304;52.456;13.328;2023-03-19T01:19:10;9.70;22.90
47576;DHT22;33304;52.456;13.328;2023-03-19T01:21:38;9.70;23.10
47576;DHT22;33304;52.456;13.328;2023-03-19T01:24:08;9.80;22.60
47576;DHT22;33304;52.456;13.328;2023-03-19T01:26:36;9.70;23.20
47576;DHT22;33304;52.456;13.328;2023-03-19T01:29:17;9.70;23.00
47576;DHT22;33304;52.456;13.328;2023-03-19T01:31:44;9.60;22.60
47576;DHT22;33304;52.456;13.328;2023-03-19T01:34:29;9.60;23.00
47576;DHT22;33304;52.456;13.328;2023-03-19T01:37:05;9.60;22.90
47576;DHT22;33304;52.456;13.328;2023-03-19T01:39:33;9.60;22.50
47576;DHT22;33304;52.456;13.328;2023-03-19T01:42:04;9.60;22.80
47576;DHT22;33304;52.456;13.328;2023-03-19T01:44:48;9.60;22.50
47576;DHT22;33304;52.456;13.328;2023-03-19T01:47:27;9.50;22.40
47576;DHT22;33304;52.456;13.328;2023-03-19T01:50:20;9.50;22.40
47576;DHT22;33304;52.456;13.328;2023-03-19T01:52:50;9.40;22.50
47576;DHT22;33304;52.456;13.328;2023-03-19T01:55:24;9.40;22.40
47576;DHT22;33304;52.456;13.328;2023-03-19T01:58:15;9.40;23.20
47576;DHT22;33304;52.456;13.328;2023-03-19T02:01:05;9.30;23.00
47576;DHT22;33304;52.456;13.328;2023-03-19T02:03:36;9.30;23.30
47576;DHT22;33304;52.456;13.328;2023-03-19T02:06:19;9.30;23.60
47576;DHT22;33304;52.456;13.328;2023-03-19T02:08:47;9.40;23.30
47576;DHT22;33304;52.456;13.328;2023-03-19T02:11:15;9.30;23.30
47576;DHT22;33304;52.456;13.328;2023-03-19T02:13:42;9.50;22.40
47576;DHT22;33304;52.456;13.328;2023-03-19T02:16:11;9.50;22.50
47576;DHT22;33304;52.456;13.328;2023-03-19T02:18:40;9.60;22.50
47576;DHT22;33304;52.456;13.328;2023-03-19T02:21:09;9.60;22.50
47576;DHT22;33304;52.456;13.328;2023-03-19T02:23:40;9.60;22.50
47576;DHT22;33304;52.456;13.328;2023-03-19T02:26:16;9.60;22.50
47576;DHT22;33304;52.456;13.328;2023-03-19T02:28:47;9.50;22.50
47576;DHT22;33304;52.456;13.328;2023-03-19T02:31:20;9.60;22.50
47576;DHT22;33304;52.456;13.328;2023-03-19T02:33:56;9.50;22.40
47576;DHT22;33304;52.456;13.328;2023-03-19T02:36:25;9.60;22.50
47576;DHT22;33304;52.456;13.328;2023-03-19T02:38:56;9.40;22.40
47576;DHT22;33304;52.456;13.328;2023-03-19T02:41:25;9.30;22.30
47576;DHT22;33304;52.456;13.328;2023-03-19T02:43:54;9.40;22.40
47576;DHT22;33304;52.456;13.328;2023-03-19T02:46:21;9.40;22.40
47576;DHT22;33304;52.456;13.328;2023-03-19T02:48:48;9.50;22.40
47576;DHT22;33304;52.456;13.328;2023-03-19T02:51:15;9.50;22.50
47576;DHT22;33304;52.456;13.328;2023-03-19T02:53:42;9.60;22.50
47576;DHT22;33304;52.456;13.328;2023-03-19T02:56:10;9.60;22.50
47576;DHT22;33304;52.456;13.328;2023-03-19T02:58:39;9.60;22.50
47576;DHT22;33304;52.456;13.328;2023-03-19T03:01:06;9.60;22.50
47576;DHT22;33304;52.456;13.328;2023-03-19T03:03:33;9.50;22.40
47576;DHT22;33304;52.456;13.328;2023-03-19T03:06:00;9.60;22.30
47576;DHT22;33304;52.456;13.328;2023-03-19T03:08:27;9.60;21.80
47576;DHT22;33304;52.456;13.328;2023-03-19T03:10:54;9.60;22.00
47576;DHT22;33304;52.456;13.328;2023-03-19T03:13:22;9.60;22.50
47576;DHT22;33304;52.456;13.328;2023-03-19T03:15:50;9.50;22.40
47576;DHT22;33304;52.456;13.328;2023-03-19T03:18:18;9.60;22.00
47576;DHT22;33304;52.456;13.328;2023-03-19T03:20:45;9.60;22.50
47576;DHT22;33304;52.456;13.328;2023-03-19T03:23:12;9.40;22.40
47576;DHT22;33304;52.456;13.328;2023-03-19T03:25:40;9.50;22.40
47576;DHT22;33304;52.456;13.328;2023-03-19T03:28:07;9.40;22.40
47576;DHT22;33304;52.456;13.328;2023-03-19T03:30:34;9.30;22.30
47576;DHT22;33304;52.456;13.328;2023-03-19T03:33:02;9.30;22.30
47576;DHT22;33304;52.456;13.328;2023-03-19T03:35:30;9.30;22.30
47576;DHT22;33304;52.456;13.328;2023-03-19T03:37:57;9.40;21.80
47576;DHT22;33304;52.456;13.328;2023-03-19T03:40:24;9.40;21.60
47576;DHT22;33304;52.456;13.328;2023-03-19T03:42:52;9.30;22.30
47576;DHT22;33304;52.456;13.328;2023-03-19T03:45:20;9.30;22.30
47576;DHT22;33304;52.456;13.328;2023-03-19T03:47:47;9.30;22.30
47576;DHT22;33304;52.456;13.328;2023-03-19T03:50:15;9.40;22.40
47576;DHT22;33304;52.456;13.328;2023-03-19T03:52:43;9.00;22.10
47576;DHT22;33304;52.456;13.328;2023-03-19T03:55:10;9.00;22.80
47576;DHT22;33304;52.456;13.328;2023-03-19T03:57:37;9.10;22.70
47576;DHT22;33304;52.456;13.328;2023-03-19T04:00:05;9.10;22.20
47576;DHT22;33304;52.456;13.328;2023-03-19T04:02:39;9.20;22.20
47576;DHT22;33304;52.456;13.328;2023-03-19T04:05:08;9.10;22.20
47576;DHT22;33304;52.456;13.328;2023-03-19T04:07:37;9.20;22.30
47576;DHT22;33304;52.456;13.328;2023-03-19T04:10:05;9.10;22.70
47576;DHT22;33304;52.456;13.328;2023-03-19T04:12:32;9.20;22.50
47576;DHT22;33304;52.456;13.328;2023-03-19T04:15:00;9.10;22.90
47576;DHT22;33304;52.456;13.328;2023-03-19T04:17:27;9.10;22.50
47576;DHT22;33304;52.456;13.328;2023-03-19T04:19:55;9.20;22.80
47576;DHT22;33304;52.456;13.328;2023-03-19T04:22:22;9.30;22.30
47576;DHT22;33304;52.456;13.328;2023-03-19T04:24:50;9.30;22.30
47576;DHT22;33304;52.456;13.328;2023-03-19T04:27:17;9.00;22.50
47576;DHT22;33304;52.456;13.328;2023-03-19T04:29:44;8.90;23.40
47576;DHT22;33304;52.456;13.328;2023-03-19T04:32:13;9.00;23.50
47576;DHT22;33304;52.456;13.328;2023-03-19T04:34:40;9.10;23.10
47576;DHT22;33304;52.456;13.328;2023-03-19T04:37:08;9.20;23.10
47576;DHT22;33304;52.456;13.328;2023-03-19T04:39:43;9.20;23.30
47576;DHT22;33304;52.456;13.328;2023-03-19T04:42:12;9.20;23.90
47576;DHT22;33304;52.456;13.328;2023-03-19T04:44:46;9.20;24.70
47576;DHT22;33304;52.456;13.328;2023-03-19T04:47:14;9.10;26.20
47576;DHT22;33304;52.456;13.328;2023-03-19T04:49:52;9.00;27.50
47576;DHT22;33304;52.456;13.328;2023-03-19T04:52:20;8.90;31.60
47576;DHT22;33304;52.456;13.328;2023-03-19T04:54:48;8.70;34.00
47576;DHT22;33304;52.456;13.328;2023-03-19T04:57:17;8.50;37.20
47576;DHT22;33304;52.456;13.328;2023-03-19T04:59:46;8.40;38.70
47576;DHT22;33304;52.456;13.328;2023-03-19T05:02:18;8.10;40.80
47576;DHT22;33304;52.456;13.328;2023-03-19T05:04:45;8.10;42.70
47576;DHT22;33304;52.456;13.328;2023-03-19T05:07:14;8.20;46.00
47576;DHT22;33304;52.456;13.328;2023-03-19T05:09:42;8.10;52.00
47576;DHT22;33304;52.456;13.328;2023-03-19T05:12:12;8.20;61.50
47576;DHT22;33304;52.456;13.328;2023-03-19T05:14:45;8.10;76.70
47576;DHT22;33304;52.456;13.328;2023-03-19T05:17:17;8.10;90.40
47576;DHT22;33304;52.456;13.328;2023-03-19T05:20:02;8.30;99.90
47576;DHT22;33304;52.456;13.328;2023-03-19T05:22:32;8.50;99.90
47576;DHT22;33304;52.456;13.328;2023-03-19T05:24:59;8.50;99.90
47576;DHT22;33304;52.456;13.328;2023-03-19T05:27:29;8.60;99.90
47576;DHT22;33304;52.456;13.328;2023-03-19T05:33:09;8.70;99.90
47576;DHT22;33304;52.456;13.328;2023-03-19T05:35:40;8.80;99.90
47576;DHT22;33304;52.456;13.328;2023-03-19T05:38:20;8.80;99.90
47576;DHT22;33304;52.456;13.328;2023-03-19T05:40:54;8.80;99.90
47576;DHT22;33304;52.456;13.328;2023-03-19T05:43:31;8.90;99.90
47576;DHT22;33304;52.456;13.328;2023-03-19T05:46:01;9.00;99.90
47576;DHT22;33304;52.456;13.328;2023-03-19T05:48:33;9.10;99.90
47576;DHT22;33304;52.456;13.328;2023-03-19T05:51:03;9.00;99.90
47576;DHT22;33304;52.456;13.328;2023-03-19T05:53:34;8.70;99.90
47576;DHT22;33304;52.456;13.328;2023-03-19T05:56:26;8.60;99.90
47576;DHT22;33304;52.456;13.328;2023-03-19T05:59:06;8.60;99.90
47576;DHT22;33304;52.456;13.328;2023-03-19T06:01:38;8.40;99.90
47576;DHT22;33304;52.456;13.328;2023-03-19T06:04:07;8.40;99.90
47576;DHT22;33304;52.456;13.328;2023-03-19T06:06:34;8.20;99.90
47576;DHT22;33304;52.456;13.328;2023-03-19T06:09:02;8.20;99.90
47576;DHT22;33304;52.456;13.328;2023-03-19T06:11:39;8.20;99.90
47576;DHT22;33304;52.456;13.328;2023-03-19T06:14:25;8.30;99.90
47576;DHT22;33304;52.456;13.328;2023-03-19T06:17:12;8.40;99.90
47576;DHT22;33304;52.456;13.328;2023-03-19T06:19:41;8.50;99.90
47576;DHT22;33304;52.456;13.328;2023-03-19T06:22:08;8.40;99.90
47576;DHT22;33304;52.456;13.328;2023-03-19T06:24:35;8.50;89.40
47576;DHT22;33304;52.456;13.328;2023-03-19T06:27:03;8.30;83.30
47576;DHT22;33304;52.456;13.328;2023-03-19T06:29:30;8.20;69.40
47576;DHT22;33304;52.456;13.328;2023-03-19T06:32:05;8.10;75.40
47576;DHT22;33304;52.456;13.328;2023-03-19T06:34:40;8.10;71.30
47576;DHT22;33304;52.456;13.328;2023-03-19T06:37:07;8.20;76.40
47576;DHT22;33304;52.456;13.328;2023-03-19T06:39:34;8.30;82.30
47576;DHT22;33304;52.456;13.328;2023-03-19T06:42:01;8.60;70.90
47576;DHT22;33304;52.456;13.328;2023-03-19T06:44:28;8.70;70.60
47576;DHT22;33304;52.456;13.328;2023-03-19T06:46:55;8.60;65.30
47576;DHT22;33304;52.456;13.328;2023-03-19T06:49:23;8.60;68.10
47576;DHT22;33304;52.456;13.328;2023-03-19T06:51:51;8.60;70.50
47576;DHT22;33304;52.456;13.328;2023-03-19T06:54:18;8.70;67.80
47576;DHT22;33304;52.456;13.328;2023-03-19T06:56:46;8.80;62.50
47576;DHT22;33304;52.456;13.328;2023-03-19T06:59:13;8.80;63.40
47576;DHT22;33304;52.456;13.328;2023-03-19T07:01:41;8.70;65.20
47576;DHT22;33304;52.456;13.328;2023-03-19T07:04:08;8.80;67.70
47576;DHT22;33304;52.456;13.328;2023-03-19T07:06:35;8.70;65.20
47576;DHT22;33304;52.456;13.328;2023-03-19T07:09:04;8.50;62.60
47576;DHT22;33304;52.456;13.328;2023-03-19T07:11:31;8.50;64.40
47576;DHT22;33304;52.456;13.328;2023-03-19T07:13:58;8.60;64.30
47576;DHT22;33304;52.456;13.328;2023-03-19T07:16:25;8.60;62.70
47576;DHT22;33304;52.456;13.328;2023-03-19T07:18:52;8.50;62.40
47576;DHT22;33304;52.456;13.328;2023-03-19T07:21:19;8.40;64.90
47576;DHT22;33304;52.456;13.328;2023-03-19T07:23:46;8.50;71.10
47576;DHT22;33304;52.456;13.328;2023-03-19T07:26:17;8.70;71.40
47576;DHT22;33304;52.456;13.328;2023-03-19T07:28:44;8.70;72.50
47576;DHT22;33304;52.456;13.328;2023-03-19T07:31:11;8.80;77.40
47576;DHT22;33304;52.456;13.328;2023-03-19T07:33:38;9.00;76.20
47576;DHT22;33304;52.456;13.328;2023-03-19T07:36:07;9.00;76.20
47576;DHT22;33304;52.456;13.328;2023-03-19T07:38:34;9.10;76.20
47576;DHT22;33304;52.456;13.328;2023-03-19T07:41:01;9.20;75.30
47576;DHT22;33304;52.456;13.328;2023-03-19T07:43:30;9.30;73.80
47576;DHT22;33304;52.456;13.328;2023-03-19T07:45:57;9.40;75.40
47576;DHT22;33304;52.456;13.328;2023-03-19T07:48:25;9.40;74.70
47576;DHT22;33304;52.456;13.328;2023-03-19T07:50:52;9.50;74.10
47576;DHT22;33304;52.456;13.328;2023-03-19T07:53:19;9.40;72.80
47576;DHT22;33304;52.456;13.328;2023-03-19T07:55:47;9.40;73.50
47576;DHT22;33304;52.456;13.328;2023-03-19T07:58:14;9.40;65.90
47576;DHT22;33304;52.456;13.328;2023-03-19T08:00:43;9.40;66.20
47576;DHT22;33304;52.456;13.328;2023-03-19T08:03:11;9.50;67.40
47576;DHT22;33304;52.456;13.328;2023-03-19T08:05:38;9.70;66.00
47576;DHT22;33304;52.456;13.328;2023-03-19T08:08:05;9.70;64.30
47576;DHT22;33304;52.456;13.328;2023-03-19T08:10:32;9.80;62.10
47576;DHT22;33304;52.456;13.328;2023-03-19T08:12:59;9.70;60.80
47576;DHT22;33304;52.456;13.328;2023-03-19T08:15:26;9.80;60.40
47576;DHT22;33304;52.456;13.328;2023-03-19T08:17:58;9.80;59.80
47576;DHT22;33304;52.456;13.328;2023-03-19T08:20:26;9.70;60.00
47576;DHT22;33304;52.456;13.328;2023-03-19T08:22:53;9.80;60.70
47576;DHT22;33304;52.456;13.328;2023-03-19T08:25:21;10.00;56.80
47576;DHT22;33304;52.456;13.328;2023-03-19T08:27:49;9.90;57.90
47576;DHT22;33304;52.456;13.328;2023-03-19T08:30:16;9.90;60.30
47576;DHT22;33304;52.456;13.328;2023-03-19T08:32:43;9.80;63.60
47576;DHT22;33304;52.456;13.328;2023-03-19T08:35:12;9.70;63.20
47576;DHT22;33304;52.456;13.328;2023-03-19T08:37:39;9.50;69.60
47576;DHT22;33304;52.456;13.328;2023-03-19T08:40:08;9.40;79.10
47576;DHT22;33304;52.456;13.328;2023-03-19T08:42:35;9.20;90.70
47576;DHT22;33304;52.456;13.328;2023-03-19T08:45:04;9.10;97.80
47576;DHT22;33304;52.456;13.328;2023-03-19T08:47:31;9.10;99.90
47576;DHT22;33304;52.456;13.328;2023-03-19T08:49:58;9.10;99.90
47576;DHT22;33304;52.456;13.328;2023-03-19T08:52:27;9.00;99.90
47576;DHT22;33304;52.456;13.328;2023-03-19T08:54:54;9.00;99.90
47576;DHT22;33304;52.456;13.328;2023-03-19T08:57:21;9.00;99.90
47576;DHT22;33304;52.456;13.328;2023-03-19T08:59:48;9.20;99.90
47576;DHT22;33304;52.456;13.328;2023-03-19T09:02:15;9.20;99.90
47576;DHT22;33304;52.456;13.328;2023-03-19T09:04:42;9.20;99.90
47576;DHT22;33304;52.456;13.328;2023-03-19T09:07:10;9.30;99.90
47576;DHT22;33304;52.456;13.328;2023-03-19T09:09:42;9.40;99.90
47576;DHT22;33304;52.456;13.328;2023-03-19T09:12:12;9.50;99.90
47576;DHT22;33304;52.456;13.328;2023-03-19T09:14:40;9.50;99.90
47576;DHT22;33304;52.456;13.328;2023-03-19T09:17:07;9.60;99.90
47576;DHT22;33304;52.456;13.328;2023-03-19T09:19:35;9.70;99.90
47576;DHT22;33304;52.456;13.328;2023-03-19T09:22:03;9.70;99.90
47576;DHT22;33304;52.456;13.328;2023-03-19T09:24:30;9.80;99.90
47576;DHT22;33304;52.456;13.328;2023-03-19T09:26:59;9.80;99.90
47576;DHT22;33304;52.456;13.328;2023-03-19T09:29:26;9.80;99.90
47576;DHT22;33304;52.456;13.328;2023-03-19T09:31:53;9.90;99.80
47576;DHT22;33304;52.456;13.328;2023-03-19T09:34:20;10.00;99.90
47576;DHT22;33304;52.456;13.328;2023-03-19T09:36:47;10.10;99.90
47576;DHT22;33304;52.456;13.328;2023-03-19T09:39:14;10.30;99.80
47576;DHT22;33304;52.456;13.328;2023-03-19T09:41:53;10.50;97.40
47576;DHT22;33304;52.456;13.328;2023-03-19T09:44:29;10.60;96.90
47576;DHT22;33304;52.456;13.328;2023-03-19T09:46:58;10.70;95.90
47576;DHT22;33304;52.456;13.328;2023-03-19T09:49:29;10.80;96.00
47576;DHT22;33304;52.456;13.328;2023-03-19T09:52:00;10.90;95.40
47576;DHT22;33304;52.456;13.328;2023-03-19T09:54:32;11.00;94.00
47576;DHT22;33304;52.456;13.328;2023-03-19T09:57:03;11.10;91.10
47576;DHT22;33304;52.456;13.328;2023-03-19T09:59:32;11.20;87.40
47576;DHT22;33304;52.456;13.328;2023-03-19T10:02:26;11.20;83.40
47576;DHT22;33304;52.456;13.328;2023-03-19T10:05:02;11.30;84.80
47576;DHT22;33304;52.456;13.328;2023-03-19T10:07:44;11.40;79.30
47576;DHT22;33304;52.456;13.328;2023-03-19T10:10:33;11.40;79.70
47576;DHT22;33304;52.456;13.328;2023-03-19T10:13:11;11.20;82.70
47576;DHT22;33304;52.456;13.328;2023-03-19T10:15:44;11.30;82.20
47576;DHT22;33304;52.456;13.328;2023-03-19T10:18:15;11.30;80.00
47576;DHT22;33304;52.456;13.328;2023-03-19T10:20:47;11.30;76.10
47576;DHT22;33304;52.456;13.328;2023-03-19T10:23:31;11.30;77.20
47576;DHT22;33304;52.456;13.328;2023-03-19T10:26:02;11.30;79.50
47576;DHT22;33304;52.456;13.328;2023-03-19T10:28:29;11.60;77.50
47576;DHT22;33304;52.456;13.328;2023-03-19T10:31:06;11.60;70.10
47576;DHT22;33304;52.456;13.328;2023-03-19T10:33:42;11.80;67.00
47576;DHT22;33304;52.456;13.328;2023-03-19T10:36:11;11.80;67.00
47576;DHT22;33304;52.456;13.328;2023-03-19T10:38:40;12.10;67.30
47576;DHT22;33304;52.456;13.328;2023-03-19T10:41:33;12.30;64.70
47576;DHT22;33304;52.456;13.328;2023-03-19T10:44:09;12.30;57.10
47576;DHT22;33304;52.456;13.328;2023-03-19T10:46:39;12.10;57.50
47576;DHT22;33304;52.456;13.328;2023-03-19T10:49:10;12.20;56.40
47576;DHT22;33304;52.456;13.328;2023-03-19T10:51:42;12.30;56.50
47576;DHT22;33304;52.456;13.328;2023-03-19T10:54:21;12.40;54.80
47576;DHT22;33304;52.456;13.328;2023-03-19T10:56:49;12.60;52.00
47576;DHT22;33304;52.456;13.328;2023-03-19T10:59:22;12.70;51.10
47576;DHT22;33304;52.456;13.328;2023-03-19T11:01:55;12.60;48.60
47576;DHT22;33304;52.456;13.328;2023-03-19T11:04:31;12.70;49.10
47576;DHT22;33304;52.456;13.328;2023-03-19T11:07:02;13.00;48.00
47576;DHT22;33304;52.456;13.328;2023-03-19T11:09:34;13.20;46.10
47576;DHT22;33304;52.456;13.328;2023-03-19T11:12:07;13.40;43.10
47576;DHT22;33304;52.456;13.328;2023-03-19T11:14:41;13.30;41.90
47576;DHT22;33304;52.456;13.328;2023-03-19T11:17:20;13.10;42.40
47576;DHT22;33304;52.456;13.328;2023-03-19T11:19:55;13.10;43.40
47576;DHT22;33304;52.456;13.328;2023-03-19T11:22:24;13.20;43.50
47576;DHT22;33304;52.456;13.328;2023-03-19T11:24:54;13.40;41.80
47576;DHT22;33304;52.456;13.328;2023-03-19T11:27:29;13.50;41.60
47576;DHT22;33304;52.456;13.328;2023-03-19T11:29:56;12.90;39.90
47576;DHT22;33304;52.456;13.328;2023-03-19T11:32:34;13.00;40.80
47576;DHT22;33304;52.456;13.328;2023-03-19T11:35:08;12.90;40.10
47576;DHT22;33304;52.456;13.328;2023-03-19T11:37:49;12.90;41.50
47576;DHT22;33304;52.456;13.328;2023-03-19T11:40:27;13.20;38.60
47576;DHT22;33304;52.456;13.328;2023-03-19T11:45:59;13.40;37.80
47576;DHT22;33304;52.456;13.328;2023-03-19T11:48:40;13.20;39.10
47576;DHT22;33304;52.456;13.328;2023-03-19T11:51:14;13.10;40.30
47576;DHT22;33304;52.456;13.328;2023-03-19T11:53:56;13.20;40.20
47576;DHT22;33304;52.456;13.328;2023-03-19T11:56:31;13.10;40.40
47576;DHT22;33304;52.456;13.328;2023-03-19T11:59:20;13.00;39.60
47576;DHT22;33304;52.456;13.328;2023-03-19T12:02:07;13.10;40.50
47576;DHT22;33304;52.456;13.328;2023-03-19T12:05:10;13.20;40.40
47576;DHT22;33304;52.456;13.328;2023-03-19T12:07:51;13.50;39.00
47576;DHT22;33304;52.456;13.328;2023-03-19T12:10:27;13.30;39.10
47576;DHT22;33304;52.456;13.328;2023-03-19T12:13:02;13.30;39.50
47576;DHT22;33304;52.456;13.328;2023-03-19T12:15:37;13.30;39.60
47576;DHT22;33304;52.456;13.328;2023-03-19T12:18:15;13.60;39.00
47576;DHT22;33304;52.456;13.328;2023-03-19T12:20:53;13.60;39.20
47576;DHT22;33304;52.456;13.328;2023-03-19T12:23:36;13.80;39.20
47576;DHT22;33304;52.456;13.328;2023-03-19T12:26:09;13.60;37.70
47576;DHT22;33304;52.456;13.328;2023-03-19T12:28:43;13.50;37.60
47576;DHT22;33304;52.456;13.328;2023-03-19T12:31:30;13.70;38.30
47576;DHT22;33304;52.456;13.328;2023-03-19T12:34:18;14.00;35.20
47576;DHT22;33304;52.456;13.328;2023-03-19T12:36:53;14.20;35.40
47576;DHT22;33304;52.456;13.328;2023-03-19T12:39:24;14.00;37.10
47576;DHT22;33304;52.456;13.328;2023-03-19T12:41:53;14.30;35.40
47576;DHT22;33304;52.456;13.328;2023-03-19T12:44:24;14.50;35.60
47576;DHT22;33304;52.456;13.328;2023-03-19T12:46:55;14.50;35.70
47576;DHT22;33304;52.456;13.328;2023-03-19T12:49:26;14.50;34.30
47576;DHT22;33304;52.456;13.328;2023-03-19T12:52:00;14.80;35.80
47576;DHT22;33304;52.456;13.328;2023-03-19T12:54:32;15.00;34.60
47576;DHT22;33304;52.456;13.328;2023-03-19T12:57:06;15.30;30.80
47576;DHT22;33304;52.456;13.328;2023-03-19T12:59:36;15.20;31.50
47576;DHT22;33304;52.456;13.328;2023-03-19T13:02:15;15.00;31.10
47576;DHT22;33304;52.456;13.328;2023-03-19T13:04:50;14.70;31.90
47576;DHT22;33304;52.456;13.328;2023-03-19T13:07:23;14.60;33.40
47576;DHT22;33304;52.456;13.328;2023-03-19T13:09:58;15.00;32.70
47576;DHT22;33304;52.456;13.328;2023-03-19T13:12:28;15.50;31.30
47576;DHT22;33304;52.456;13.328;2023-03-19T13:14:59;16.10;29.40
47576;DHT22;33304;52.456;13.328;2023-03-19T13:17:34;16.40;26.50
47576;DHT22;33304;52.456;13.328;2023-03-19T13:20:15;16.70;26.70
47576;DHT22;33304;52.456;13.328;2023-03-19T13:22:50;16.90;25.10
47576;DHT22;33304;52.456;13.328;2023-03-19T13:25:22;16.90;26.80
47576;DHT22;33304;52.456;13.328;2023-03-19T13:27:52;16.90;25.00
47576;DHT22;33304;52.456;13.328;2023-03-19T13:30:21;16.80;24.90
47576;DHT22;33304;52.456;13.328;2023-03-19T13:32:50;17.00;25.10
47576;DHT22;33304;52.456;13.328;2023-03-19T13:35:33;17.00;22.10
47576;DHT22;33304;52.456;13.328;2023-03-19T13:38:05;17.00;20.80
47576;DHT22;33304;52.456;13.328;2023-03-19T13:40:52;17.00;20.60
47576;DHT22;33304;52.456;13.328;2023-03-19T13:43:52;16.80;19.40
47576;DHT22;33304;52.456;13.328;2023-03-19T13:46:36;16.50;18.80
47576;DHT22;33304;52.456;13.328;2023-03-19T13:49:24;17.00;17.30
47576;DHT22;33304;52.456;13.328;2023-03-19T13:51:59;17.00;17.20
47576;DHT22;33304;52.456;13.328;2023-03-19T13:54:39;17.00;17.20
47576;DHT22;33304;52.456;13.328;2023-03-19T13:57:19;16.60;17.00
47576;DHT22;33304;52.456;13.328;2023-03-19T13:59:48;16.60;17.00
47576;DHT22;33304;52.456;13.328;2023-03-19T14:02:45;16.60;17.00
47576;DHT22;33304;52.456;13.328;2023-03-19T14:05:18;16.20;16.70
47576;DHT22;33304;52.456;13.328;2023-03-19T14:07:51;16.00;17.70
47576;DHT22;33304;52.456;13.328;2023-03-19T14:10:23;15.90;17.90
47576;DHT22;33304;52.456;13.328;2023-03-19T14:13:00;16.10;17.50
47576;DHT22;33304;52.456;13.328;2023-03-19T14:15:28;16.20;17.90
47576;DHT22;33304;52.456;13.328;2023-03-19T14:18:22;16.40;16.80
47576;DHT22;33304;52.456;13.328;2023-03-19T14:20:57;16.80;17.10
47576;DHT22;33304;52.456;13.328;2023-03-19T14:23:26;16.80;17.10
47576;DHT22;33304;52.456;13.328;2023-03-19T14:26:00;16.80;17.10
47576;DHT22;33304;52.456;13.328;2023-03-19T14:28:35;16.90;16.20
47576;DHT22;33304;52.456;13.328;2023-03-19T14:31:05;16.60;17.00
47576;DHT22;33304;52.456;13.328;2023-03-19T14:33:41;16.50;16.90
47576;DHT22;33304;52.456;13.328;2023-03-19T14:36:16;16.50;16.90
47576;DHT22;33304;52.456;13.328;2023-03-19T14:38:49;16.40;16.80
47576;DHT22;33304;52.456;13.328;2023-03-19T14:41:21;16.50;17.50
47576;DHT22;33304;52.456;13.328;2023-03-19T14:44:04;16.90;17.10
47576;DHT22;33304;52.456;13.328;2023-03-19T14:46:44;16.80;16.50
47576;DHT22;33304;52.456;13.328;2023-03-19T14:52:31;17.40;14.70
47576;DHT22;33304;52.456;13.328;2023-03-19T14:55:02;18.00;13.70
47576;DHT22;33304;52.456;13.328;2023-03-19T14:57:32;18.30;12.90
47576;DHT22;33304;52.456;13.328;2023-03-19T15:00:01;17.90;13.60
47576;DHT22;33304;52.456;13.328;2023-03-19T15:02:35;18.40;12.10
47576;DHT22;33304;52.456;13.328;2023-03-19T15:05:05;18.60;11.70
47576;DHT22;33304;52.456;13.328;2023-03-19T15:07:35;18.20;11.90
47576;DHT22;33304;52.456;13.328;2023-03-19T15:10:06;17.90;12.60
47576;DHT22;33304;52.456;13.328;2023-03-19T15:12:45;18.20;11.70
47576;DHT22;33304;52.456;13.328;2023-03-19T15:15:26;18.10;12.00
47576;DHT22;33304;52.456;13.328;2023-03-19T15:17:59;17.50;13.20
47576;DHT22;33304;52.456;13.328;2023-03-19T15:20:32;17.40;12.50
47576;DHT22;33304;52.456;13.328;2023-03-19T15:23:01;17.10;12.70
47576;DHT22;33304;52.456;13.328;2023-03-19T15:25:30;17.60;13.00
47576;DHT22;33304;52.456;13.328;2023-03-19T15:28:09;17.50;11.70
47576;DHT22;33304;52.456;13.328;2023-03-19T15:30:37;17.40;12.10
47576;DHT22;33304;52.456;13.328;2023-03-19T15:33:16;17.20;12.00
47576;DHT22;33304;52.456;13.328;2023-03-19T15:35:44;17.50;12.10
47576;DHT22;33304;52.456;13.328;2023-03-19T15:38:14;17.10;12.50
47576;DHT22;33304;52.456;13.328;2023-03-19T15:40:43;17.10;12.00
47576;DHT22;33304;52.456;13.328;2023-03-19T15:43:12;17.00;12.80
47576;DHT22;33304;52.456;13.328;2023-03-19T15:45:43;17.30;12.70
47576;DHT22;33304;52.456;13.328;2023-03-19T15:48:17;16.90;12.60
47576;DHT22;33304;52.456;13.328;2023-03-19T15:50:48;17.00;12.90
47576;DHT22;33304;52.456;13.328;2023-03-19T15:53:20;16.90;12.70
47576;DHT22;33304;52.456;13.328;2023-03-19T15:55:49;16.70;13.60
47576;DHT22;33304;52.456;13.328;2023-03-19T15:58:21;16.50;13.30
47576;DHT22;33304;52.456;13.328;2023-03-19T16:00:51;16.40;14.10